Hlavní strana
METAR-TAF:

METAR-TAF

Letiště :

Letiště Kišiněv

Kišiněv, Moldavsko

zeměpisná šířka: 46-55-40N, zeměpisná délka: 028-55-51E, výška: 122 m

Aktuální stav počasí

Zpráva byla vytvořena před 20 minutami, v 12:00 UTC
Západojihozápadní vítr 11 kt, proměnlivý mezi jihojihozápadním a západním
Teplota 24°C
Vlhkost vzduchu 29%
Tlak 1005 hPa
Viditelnost 10 km a více
Žádná oblačnost pod 1500 m, nevyskytují se cumulonimby.

METAR: LUKK 041200Z 24011KT 200V280 CAVOK 24/05 Q1005 R26/D NOSIG

Čas: 15:20 (12:20 UTC)

Předpověď počasí

Zpráva byla vytvořena před 1 hodinou a 0 minutami, v 11:20 UTC
Předpověď platná od 04 v 12 UTC do 05 v 12 UTC
Jihojihozápadní vítr 10 kt
Viditelnost 10 km a více
Žádná oblačnost pod 1500 m, nevyskytují se cumulonimby.

TAF: LUKK 041120Z 0412/0512 20010KT CAVOK

Stav a předpovědi počasí z více než 4 000 letišť (zprávy METAR a TAF).

Červené a žluté tečky na mapě představují dostupné meteorologické stanice.

Když kurzor umístíte na tečku, zobrazí se název stanice.

Pak kliknutím zobrazíte stav a předpověď počasí.

Chcete-li změnit mapu, kliknutím na zelené tlačítko se znaménkem +mapu přiblížíte, kliknutím na zelené tlačítko se znaménkem – mapu oddálíte a kliknutím na zelené šipky přejdete na sousední mapy.


METAR-TAF: